sensor_id;sensor_type;location;lat;lon;timestamp;temperature;humidity
59857;DHT22;45733;52.668;6.860;2022-12-15T00:01:46;-5.40;99.90
59857;DHT22;45733;52.668;6.860;2022-12-15T00:04:31;-5.40;99.90
59857;DHT22;45733;52.668;6.860;2022-12-15T00:07:15;-5.40;99.90
59857;DHT22;45733;52.668;6.860;2022-12-15T00:10:00;-5.40;99.90
59857;DHT22;45733;52.668;6.860;2022-12-15T00:12:45;-5.40;99.90
59857;DHT22;45733;52.668;6.860;2022-12-15T00:15:30;-5.30;99.90
59857;DHT22;45733;52.668;6.860;2022-12-15T00:18:14;-5.20;99.90
59857;DHT22;45733;52.668;6.860;2022-12-15T00:20:59;-5.10;99.90
59857;DHT22;45733;52.668;6.860;2022-12-15T00:23:44;-5.20;99.90
59857;DHT22;45733;52.668;6.860;2022-12-15T00:26:28;-5.10;99.90
59857;DHT22;45733;52.668;6.860;2022-12-15T00:29:13;-5.10;99.90
59857;DHT22;45733;52.668;6.860;2022-12-15T00:31:57;-5.10;99.90
59857;DHT22;45733;52.668;6.860;2022-12-15T00:34:41;-5.30;99.90
59857;DHT22;45733;52.668;6.860;2022-12-15T00:37:25;-5.20;99.90
59857;DHT22;45733;52.668;6.860;2022-12-15T00:40:10;-5.10;99.90
59857;DHT22;45733;52.668;6.860;2022-12-15T00:42:36;-5.10;99.90
59857;DHT22;45733;52.668;6.860;2022-12-15T00:45:02;-5.10;99.90
59857;DHT22;45733;52.668;6.860;2022-12-15T00:47:31;-5.00;99.90
59857;DHT22;45733;52.668;6.860;2022-12-15T00:49:58;-5.00;99.90
59857;DHT22;45733;52.668;6.860;2022-12-15T00:52:43;-5.00;99.90
59857;DHT22;45733;52.668;6.860;2022-12-15T00:55:27;-5.00;99.90
59857;DHT22;45733;52.668;6.860;2022-12-15T00:58:12;-5.00;99.90
59857;DHT22;45733;52.668;6.860;2022-12-15T01:00:56;-4.90;99.90
59857;DHT22;45733;52.668;6.860;2022-12-15T01:03:41;-5.00;99.90
59857;DHT22;45733;52.668;6.860;2022-12-15T01:06:26;-5.00;99.90
59857;DHT22;45733;52.668;6.860;2022-12-15T01:09:12;-5.10;99.90
59857;DHT22;45733;52.668;6.860;2022-12-15T01:11:56;-5.10;99.90
59857;DHT22;45733;52.668;6.860;2022-12-15T01:14:41;-5.10;99.90
59857;DHT22;45733;52.668;6.860;2022-12-15T01:17:26;-5.20;99.90
59857;DHT22;45733;52.668;6.860;2022-12-15T01:20:10;-5.20;99.90
59857;DHT22;45733;52.668;6.860;2022-12-15T01:22:49;-5.20;99.90
59857;DHT22;45733;52.668;6.860;2022-12-15T01:25:17;-5.20;99.90
59857;DHT22;45733;52.668;6.860;2022-12-15T01:27:44;-5.20;99.90
59857;DHT22;45733;52.668;6.860;2022-12-15T01:30:12;-5.20;99.90
59857;DHT22;45733;52.668;6.860;2022-12-15T01:32:38;-5.10;99.90
59857;DHT22;45733;52.668;6.860;2022-12-15T01:35:06;-5.10;99.90
59857;DHT22;45733;52.668;6.860;2022-12-15T01:37:33;-5.20;99.90
59857;DHT22;45733;52.668;6.860;2022-12-15T01:40:00;-5.20;99.90
59857;DHT22;45733;52.668;6.860;2022-12-15T01:42:45;-5.20;99.90
59857;DHT22;45733;52.668;6.860;2022-12-15T01:48:01;-5.00;99.90
59857;DHT22;45733;52.668;6.860;2022-12-15T01:50:30;-5.00;99.90
59857;DHT22;45733;52.668;6.860;2022-12-15T01:52:58;-5.00;99.90
59857;DHT22;45733;52.668;6.860;2022-12-15T01:55:25;-5.00;99.90
59857;DHT22;45733;52.668;6.860;2022-12-15T01:57:56;-5.10;99.90
59857;DHT22;45733;52.668;6.860;2022-12-15T02:00:23;-5.10;99.90
59857;DHT22;45733;52.668;6.860;2022-12-15T02:02:50;-5.10;99.90
59857;DHT22;45733;52.668;6.860;2022-12-15T02:05:19;-5.10;99.90
59857;DHT22;45733;52.668;6.860;2022-12-15T02:07:46;-5.00;99.90
59857;DHT22;45733;52.668;6.860;2022-12-15T02:10:12;-5.00;99.90
59857;DHT22;45733;52.668;6.860;2022-12-15T02:15:31;-5.00;99.90
59857;DHT22;45733;52.668;6.860;2022-12-15T02:20:52;-4.90;99.90
59857;DHT22;45733;52.668;6.860;2022-12-15T02:26:51;-5.00;99.90
59857;DHT22;45733;52.668;6.860;2022-12-15T02:29:29;-4.90;99.90
59857;DHT22;45733;52.668;6.860;2022-12-15T02:32:12;-4.90;99.90
59857;DHT22;45733;52.668;6.860;2022-12-15T02:37:21;-4.80;99.90
59857;DHT22;45733;52.668;6.860;2022-12-15T02:39:49;-4.80;99.90
59857;DHT22;45733;52.668;6.860;2022-12-15T02:42:15;-4.80;99.90
59857;DHT22;45733;52.668;6.860;2022-12-15T02:44:55;-4.80;99.90
59857;DHT22;45733;52.668;6.860;2022-12-15T02:47:40;-4.90;99.90
59857;DHT22;45733;52.668;6.860;2022-12-15T02:56:37;-4.90;99.90
59857;DHT22;45733;52.668;6.860;2022-12-15T02:59:12;-5.10;99.90
59857;DHT22;45733;52.668;6.860;2022-12-15T03:01:59;-5.10;99.90
59857;DHT22;45733;52.668;6.860;2022-12-15T03:04:27;-5.10;99.90
59857;DHT22;45733;52.668;6.860;2022-12-15T03:06:57;-5.10;99.90
59857;DHT22;45733;52.668;6.860;2022-12-15T03:09:24;-5.10;99.90
59857;DHT22;45733;52.668;6.860;2022-12-15T03:11:50;-5.10;99.90
59857;DHT22;45733;52.668;6.860;2022-12-15T03:14:16;-5.10;99.90
59857;DHT22;45733;52.668;6.860;2022-12-15T03:16:42;-5.10;99.90
59857;DHT22;45733;52.668;6.860;2022-12-15T03:19:08;-5.10;99.90
59857;DHT22;45733;52.668;6.860;2022-12-15T03:21:34;-5.10;99.90
59857;DHT22;45733;52.668;6.860;2022-12-15T03:24:00;-5.00;99.90
59857;DHT22;45733;52.668;6.860;2022-12-15T03:26:26;-5.00;99.90
59857;DHT22;45733;52.668;6.860;2022-12-15T03:28:52;-5.00;99.90
59857;DHT22;45733;52.668;6.860;2022-12-15T03:31:18;-4.90;99.90
59857;DHT22;45733;52.668;6.860;2022-12-15T03:33:44;-4.90;99.90
59857;DHT22;45733;52.668;6.860;2022-12-15T03:36:10;-4.90;99.90
59857;DHT22;45733;52.668;6.860;2022-12-15T03:38:36;-4.80;99.90
59857;DHT22;45733;52.668;6.860;2022-12-15T03:41:02;-4.80;99.90
59857;DHT22;45733;52.668;6.860;2022-12-15T03:43:28;-4.70;99.90
59857;DHT22;45733;52.668;6.860;2022-12-15T03:45:54;-4.70;99.90
59857;DHT22;45733;52.668;6.860;2022-12-15T03:48:20;-4.70;99.90
59857;DHT22;45733;52.668;6.860;2022-12-15T03:50:47;-4.80;99.90
59857;DHT22;45733;52.668;6.860;2022-12-15T03:53:14;-4.80;99.90
59857;DHT22;45733;52.668;6.860;2022-12-15T03:55:40;-4.80;99.90
59857;DHT22;45733;52.668;6.860;2022-12-15T03:58:06;-4.80;99.90
59857;DHT22;45733;52.668;6.860;2022-12-15T04:00:32;-4.80;99.90
59857;DHT22;45733;52.668;6.860;2022-12-15T04:02:59;-4.70;99.90
59857;DHT22;45733;52.668;6.860;2022-12-15T04:05:30;-4.70;99.90
59857;DHT22;45733;52.668;6.860;2022-12-15T04:07:57;-4.70;99.90
59857;DHT22;45733;52.668;6.860;2022-12-15T04:10:26;-4.60;99.90
59857;DHT22;45733;52.668;6.860;2022-12-15T04:13:05;-4.60;99.90
59857;DHT22;45733;52.668;6.860;2022-12-15T04:15:32;-4.50;99.90
59857;DHT22;45733;52.668;6.860;2022-12-15T04:18:00;-4.60;99.90
59857;DHT22;45733;52.668;6.860;2022-12-15T04:20:28;-4.60;99.90
59857;DHT22;45733;52.668;6.860;2022-12-15T04:22:54;-4.50;99.90
59857;DHT22;45733;52.668;6.860;2022-12-15T04:25:22;-4.50;99.90
59857;DHT22;45733;52.668;6.860;2022-12-15T04:28:08;-4.40;99.90
59857;DHT22;45733;52.668;6.860;2022-12-15T04:30:59;-4.30;99.90
59857;DHT22;45733;52.668;6.860;2022-12-15T04:33:48;-4.30;99.90
59857;DHT22;45733;52.668;6.860;2022-12-15T04:36:33;-4.30;99.90
59857;DHT22;45733;52.668;6.860;2022-12-15T04:39:19;-4.50;99.90
59857;DHT22;45733;52.668;6.860;2022-12-15T04:42:04;-4.70;99.90
59857;DHT22;45733;52.668;6.860;2022-12-15T04:44:49;-4.60;99.90
59857;DHT22;45733;52.668;6.860;2022-12-15T04:47:35;-4.70;99.90
59857;DHT22;45733;52.668;6.860;2022-12-15T04:50:20;-4.70;99.90
59857;DHT22;45733;52.668;6.860;2022-12-15T04:53:11;-4.70;99.90
59857;DHT22;45733;52.668;6.860;2022-12-15T04:55:55;-4.70;99.90
59857;DHT22;45733;52.668;6.860;2022-12-15T04:58:40;-4.60;99.90
59857;DHT22;45733;52.668;6.860;2022-12-15T05:01:32;-4.50;99.90
59857;DHT22;45733;52.668;6.860;2022-12-15T05:04:16;-4.60;99.90
59857;DHT22;45733;52.668;6.860;2022-12-15T05:07:01;-4.40;99.90
59857;DHT22;45733;52.668;6.860;2022-12-15T05:09:46;-4.50;99.90
59857;DHT22;45733;52.668;6.860;2022-12-15T05:12:31;-4.40;99.90
59857;DHT22;45733;52.668;6.860;2022-12-15T05:15:15;-4.40;99.90
59857;DHT22;45733;52.668;6.860;2022-12-15T05:18:00;-4.40;99.90
59857;DHT22;45733;52.668;6.860;2022-12-15T05:20:45;-4.50;99.90
59857;DHT22;45733;52.668;6.860;2022-12-15T05:23:30;-4.50;99.90
59857;DHT22;45733;52.668;6.860;2022-12-15T05:26:14;-4.50;99.90
59857;DHT22;45733;52.668;6.860;2022-12-15T05:28:59;-4.40;99.90
59857;DHT22;45733;52.668;6.860;2022-12-15T05:31:44;-4.50;99.90
59857;DHT22;45733;52.668;6.860;2022-12-15T05:34:24;-4.40;99.90
59857;DHT22;45733;52.668;6.860;2022-12-15T05:36:54;-4.40;99.90
59857;DHT22;45733;52.668;6.860;2022-12-15T05:39:21;-4.30;99.90
59857;DHT22;45733;52.668;6.860;2022-12-15T05:41:49;-4.40;99.90
59857;DHT22;45733;52.668;6.860;2022-12-15T05:44:15;-4.30;99.90
59857;DHT22;45733;52.668;6.860;2022-12-15T05:46:42;-4.40;99.90
59857;DHT22;45733;52.668;6.860;2022-12-15T05:49:11;-4.30;99.90
59857;DHT22;45733;52.668;6.860;2022-12-15T05:51:38;-4.30;99.90
59857;DHT22;45733;52.668;6.860;2022-12-15T05:54:09;-4.20;99.90
59857;DHT22;45733;52.668;6.860;2022-12-15T05:56:35;-4.20;99.90
59857;DHT22;45733;52.668;6.860;2022-12-15T05:59:01;-4.10;99.90
59857;DHT22;45733;52.668;6.860;2022-12-15T06:01:29;-4.20;99.90
59857;DHT22;45733;52.668;6.860;2022-12-15T06:04:00;-4.10;99.90
59857;DHT22;45733;52.668;6.860;2022-12-15T06:06:26;-4.20;99.90
59857;DHT22;45733;52.668;6.860;2022-12-15T06:08:53;-4.30;99.90
59857;DHT22;45733;52.668;6.860;2022-12-15T06:11:20;-4.20;99.90
59857;DHT22;45733;52.668;6.860;2022-12-15T06:13:46;-4.30;99.90
59857;DHT22;45733;52.668;6.860;2022-12-15T06:16:15;-4.30;99.90
59857;DHT22;45733;52.668;6.860;2022-12-15T06:18:44;-4.50;99.90
59857;DHT22;45733;52.668;6.860;2022-12-15T06:21:13;-4.50;99.90
59857;DHT22;45733;52.668;6.860;2022-12-15T06:23:41;-4.60;99.90
59857;DHT22;45733;52.668;6.860;2022-12-15T06:26:19;-4.60;99.90
59857;DHT22;45733;52.668;6.860;2022-12-15T06:28:45;-4.60;99.90
59857;DHT22;45733;52.668;6.860;2022-12-15T06:31:11;-4.70;99.90
59857;DHT22;45733;52.668;6.860;2022-12-15T06:33:38;-4.80;99.90
59857;DHT22;45733;52.668;6.860;2022-12-15T06:36:09;-4.70;99.90
59857;DHT22;45733;52.668;6.860;2022-12-15T06:38:36;-4.80;99.90
59857;DHT22;45733;52.668;6.860;2022-12-15T06:41:03;-4.80;99.90
59857;DHT22;45733;52.668;6.860;2022-12-15T06:43:31;-4.80;99.90
59857;DHT22;45733;52.668;6.860;2022-12-15T06:45:58;-4.80;99.90
59857;DHT22;45733;52.668;6.860;2022-12-15T06:48:25;-4.70;99.90
59857;DHT22;45733;52.668;6.860;2022-12-15T06:50:51;-4.80;99.90
59857;DHT22;45733;52.668;6.860;2022-12-15T06:53:20;-4.70;99.90
59857;DHT22;45733;52.668;6.860;2022-12-15T06:55:47;-4.70;99.90
59857;DHT22;45733;52.668;6.860;2022-12-15T06:58:14;-4.70;99.90
59857;DHT22;45733;52.668;6.860;2022-12-15T07:00:44;-4.80;99.90
59857;DHT22;45733;52.668;6.860;2022-12-15T07:03:16;-4.70;99.90
59857;DHT22;45733;52.668;6.860;2022-12-15T07:05:44;-4.60;99.90
59857;DHT22;45733;52.668;6.860;2022-12-15T07:08:12;-4.70;99.90
59857;DHT22;45733;52.668;6.860;2022-12-15T07:10:39;-4.60;99.90
59857;DHT22;45733;52.668;6.860;2022-12-15T07:13:08;-4.70;99.90
59857;DHT22;45733;52.668;6.860;2022-12-15T07:15:34;-4.90;99.90
59857;DHT22;45733;52.668;6.860;2022-12-15T07:18:01;-4.90;99.90
59857;DHT22;45733;52.668;6.860;2022-12-15T07:20:27;-4.80;99.90
59857;DHT22;45733;52.668;6.860;2022-12-15T07:22:53;-4.80;99.90
59857;DHT22;45733;52.668;6.860;2022-12-15T07:25:20;-4.80;99.90
59857;DHT22;45733;52.668;6.860;2022-12-15T07:27:46;-4.90;99.90
59857;DHT22;45733;52.668;6.860;2022-12-15T07:30:13;-4.80;99.90
59857;DHT22;45733;52.668;6.860;2022-12-15T07:32:40;-4.80;99.90
59857;DHT22;45733;52.668;6.860;2022-12-15T07:35:06;-4.80;99.90
59857;DHT22;45733;52.668;6.860;2022-12-15T07:37:33;-4.70;99.90
59857;DHT22;45733;52.668;6.860;2022-12-15T07:39:59;-4.70;99.90
59857;DHT22;45733;52.668;6.860;2022-12-15T07:42:28;-4.60;99.90
59857;DHT22;45733;52.668;6.860;2022-12-15T07:44:54;-4.50;99.90
59857;DHT22;45733;52.668;6.860;2022-12-15T07:47:20;-4.50;99.90
59857;DHT22;45733;52.668;6.860;2022-12-15T07:49:46;-4.50;99.90
59857;DHT22;45733;52.668;6.860;2022-12-15T07:52:13;-4.40;99.90
59857;DHT22;45733;52.668;6.860;2022-12-15T07:54:40;-4.30;99.90
59857;DHT22;45733;52.668;6.860;2022-12-15T07:57:06;-4.30;99.90
59857;DHT22;45733;52.668;6.860;2022-12-15T07:59:35;-4.30;99.90
59857;DHT22;45733;52.668;6.860;2022-12-15T08:02:01;-4.20;99.90
59857;DHT22;45733;52.668;6.860;2022-12-15T08:04:31;-4.10;99.90
59857;DHT22;45733;52.668;6.860;2022-12-15T08:06:59;-4.10;99.90
59857;DHT22;45733;52.668;6.860;2022-12-15T08:09:25;-4.00;99.90
59857;DHT22;45733;52.668;6.860;2022-12-15T08:11:51;-3.80;99.90
59857;DHT22;45733;52.668;6.860;2022-12-15T08:14:17;-3.70;99.90
59857;DHT22;45733;52.668;6.860;2022-12-15T08:16:43;-3.60;99.90
59857;DHT22;45733;52.668;6.860;2022-12-15T08:19:13;-3.50;99.90
59857;DHT22;45733;52.668;6.860;2022-12-15T08:21:42;-3.30;99.90
59857;DHT22;45733;52.668;6.860;2022-12-15T08:24:11;-3.20;99.90
59857;DHT22;45733;52.668;6.860;2022-12-15T08:26:38;-3.00;99.90
59857;DHT22;45733;52.668;6.860;2022-12-15T08:29:05;-2.70;99.90
59857;DHT22;45733;52.668;6.860;2022-12-15T08:31:32;-2.40;99.90
59857;DHT22;45733;52.668;6.860;2022-12-15T08:33:59;-2.10;99.90
59857;DHT22;45733;52.668;6.860;2022-12-15T08:36:27;-2.00;99.90
59857;DHT22;45733;52.668;6.860;2022-12-15T08:38:56;-1.90;99.90
59857;DHT22;45733;52.668;6.860;2022-12-15T08:41:24;-1.80;99.90
59857;DHT22;45733;52.668;6.860;2022-12-15T08:43:54;-1.80;99.90
59857;DHT22;45733;52.668;6.860;2022-12-15T08:46:23;-1.80;99.90
59857;DHT22;45733;52.668;6.860;2022-12-15T08:48:50;-1.60;99.90
59857;DHT22;45733;52.668;6.860;2022-12-15T08:51:18;-1.70;99.90
59857;DHT22;45733;52.668;6.860;2022-12-15T08:53:44;-1.90;99.90
59857;DHT22;45733;52.668;6.860;2022-12-15T08:56:13;-2.00;99.90
59857;DHT22;45733;52.668;6.860;2022-12-15T08:58:40;-2.20;99.90
59857;DHT22;45733;52.668;6.860;2022-12-15T09:01:13;-2.10;99.90
59857;DHT22;45733;52.668;6.860;2022-12-15T09:03:39;-2.00;99.90
59857;DHT22;45733;52.668;6.860;2022-12-15T09:06:09;-2.00;99.90
59857;DHT22;45733;52.668;6.860;2022-12-15T09:08:36;-1.80;99.90
59857;DHT22;45733;52.668;6.860;2022-12-15T09:11:02;-1.80;99.90
59857;DHT22;45733;52.668;6.860;2022-12-15T09:13:30;-1.80;99.90
59857;DHT22;45733;52.668;6.860;2022-12-15T09:16:02;-1.70;99.90
59857;DHT22;45733;52.668;6.860;2022-12-15T09:18:28;-1.60;99.90
59857;DHT22;45733;52.668;6.860;2022-12-15T09:20:54;-1.50;99.90
59857;DHT22;45733;52.668;6.860;2022-12-15T09:23:20;-1.50;99.90
59857;DHT22;45733;52.668;6.860;2022-12-15T09:25:47;-1.40;99.90
59857;DHT22;45733;52.668;6.860;2022-12-15T09:28:13;-1.30;99.90
59857;DHT22;45733;52.668;6.860;2022-12-15T09:30:39;-1.30;99.90
59857;DHT22;45733;52.668;6.860;2022-12-15T09:33:05;-1.30;99.90
59857;DHT22;45733;52.668;6.860;2022-12-15T09:35:31;-1.10;99.90
59857;DHT22;45733;52.668;6.860;2022-12-15T09:37:57;-0.90;99.90
59857;DHT22;45733;52.668;6.860;2022-12-15T09:40:24;-0.90;99.90
59857;DHT22;45733;52.668;6.860;2022-12-15T09:42:54;-0.70;99.90
59857;DHT22;45733;52.668;6.860;2022-12-15T09:45:24;-0.70;99.90
59857;DHT22;45733;52.668;6.860;2022-12-15T09:48:02;-0.70;99.90
59857;DHT22;45733;52.668;6.860;2022-12-15T09:50:37;-0.70;99.90
59857;DHT22;45733;52.668;6.860;2022-12-15T09:53:14;-0.60;99.90
59857;DHT22;45733;52.668;6.860;2022-12-15T09:55:42;-0.70;99.90
59857;DHT22;45733;52.668;6.860;2022-12-15T10:01:27;-0.50;99.90
59857;DHT22;45733;52.668;6.860;2022-12-15T10:06:44;-0.60;99.90
59857;DHT22;45733;52.668;6.860;2022-12-15T10:09:20;-0.70;99.90
59857;DHT22;45733;52.668;6.860;2022-12-15T10:12:01;-0.60;99.90
59857;DHT22;45733;52.668;6.860;2022-12-15T10:14:42;-0.70;99.90
59857;DHT22;45733;52.668;6.860;2022-12-15T10:22:24;-0.20;99.90
59857;DHT22;45733;52.668;6.860;2022-12-15T10:24:51;-0.20;99.90
59857;DHT22;45733;52.668;6.860;2022-12-15T10:30:21;0.10;99.90
59857;DHT22;45733;52.668;6.860;2022-12-15T10:35:37;0.30;99.90
59857;DHT22;45733;52.668;6.860;2022-12-15T10:38:21;0.30;99.90
59857;DHT22;45733;52.668;6.860;2022-12-15T10:40:49;0.40;99.90
59857;DHT22;45733;52.668;6.860;2022-12-15T10:43:26;0.50;99.90
59857;DHT22;45733;52.668;6.860;2022-12-15T10:48:34;0.60;99.90
59857;DHT22;45733;52.668;6.860;2022-12-15T10:53:42;0.90;99.90
59857;DHT22;45733;52.668;6.860;2022-12-15T10:58:54;0.90;99.90
59857;DHT22;45733;52.668;6.860;2022-12-15T11:01:24;0.90;99.90
59857;DHT22;45733;52.668;6.860;2022-12-15T11:03:50;1.00;99.90
59857;DHT22;45733;52.668;6.860;2022-12-15T11:06:20;1.00;99.90
59857;DHT22;45733;52.668;6.860;2022-12-15T11:08:48;1.00;99.90
59857;DHT22;45733;52.668;6.860;2022-12-15T11:11:33;0.90;99.90
59857;DHT22;45733;52.668;6.860;2022-12-15T11:14:20;1.10;99.90
59857;DHT22;45733;52.668;6.860;2022-12-15T11:16:56;1.40;99.90
59857;DHT22;45733;52.668;6.860;2022-12-15T11:19:37;1.70;99.90
59857;DHT22;45733;52.668;6.860;2022-12-15T11:22:45;1.80;99.90
59857;DHT22;45733;52.668;6.860;2022-12-15T11:28:07;1.90;99.90
59857;DHT22;45733;52.668;6.860;2022-12-15T11:30:46;2.10;99.90
59857;DHT22;45733;52.668;6.860;2022-12-15T11:33:15;2.30;99.90
59857;DHT22;45733;52.668;6.860;2022-12-15T11:41:25;2.10;99.90
59857;DHT22;45733;52.668;6.860;2022-12-15T11:44:23;2.20;99.90
59857;DHT22;45733;52.668;6.860;2022-12-15T11:46:54;2.30;99.90
59857;DHT22;45733;52.668;6.860;2022-12-15T11:52:04;2.10;99.90
59857;DHT22;45733;52.668;6.860;2022-12-15T11:54:39;2.00;99.90
59857;DHT22;45733;52.668;6.860;2022-12-15T11:59:56;1.70;99.90
59857;DHT22;45733;52.668;6.860;2022-12-15T12:02:48;1.80;99.90
59857;DHT22;45733;52.668;6.860;2022-12-15T12:06:02;1.70;99.90
59857;DHT22;45733;52.668;6.860;2022-12-15T12:08:48;1.70;99.90
59857;DHT22;45733;52.668;6.860;2022-12-15T12:11:39;1.70;99.90
59857;DHT22;45733;52.668;6.860;2022-12-15T12:16:50;2.20;99.90
59857;DHT22;45733;52.668;6.860;2022-12-15T12:19:42;2.20;99.90
59857;DHT22;45733;52.668;6.860;2022-12-15T12:22:21;2.20;99.90
59857;DHT22;45733;52.668;6.860;2022-12-15T12:24:54;2.20;99.90
59857;DHT22;45733;52.668;6.860;2022-12-15T12:27:25;2.20;99.90
59857;DHT22;45733;52.668;6.860;2022-12-15T12:35:15;2.70;99.90
59857;DHT22;45733;52.668;6.860;2022-12-15T12:38:00;2.90;99.90
59857;DHT22;45733;52.668;6.860;2022-12-15T12:43:08;3.00;99.90
59857;DHT22;45733;52.668;6.860;2022-12-15T12:45:48;3.00;99.90
59857;DHT22;45733;52.668;6.860;2022-12-15T12:48:37;3.10;99.90
59857;DHT22;45733;52.668;6.860;2022-12-15T12:51:30;3.00;99.90
59857;DHT22;45733;52.668;6.860;2022-12-15T12:53:58;3.00;99.90
59857;DHT22;45733;52.668;6.860;2022-12-15T12:56:32;3.00;99.90
59857;DHT22;45733;52.668;6.860;2022-12-15T12:58:59;2.50;99.90
59857;DHT22;45733;52.668;6.860;2022-12-15T13:01:34;2.20;99.90
59857;DHT22;45733;52.668;6.860;2022-12-15T13:04:11;2.40;99.90
59857;DHT22;45733;52.668;6.860;2022-12-15T13:17:23;2.00;99.90
59857;DHT22;45733;52.668;6.860;2022-12-15T13:22:33;1.90;99.90
59857;DHT22;45733;52.668;6.860;2022-12-15T13:25:01;2.00;99.90
59857;DHT22;45733;52.668;6.860;2022-12-15T13:27:38;2.10;99.90
59857;DHT22;45733;52.668;6.860;2022-12-15T13:32:45;2.20;99.90
59857;DHT22;45733;52.668;6.860;2022-12-15T13:45:51;1.90;99.90
59857;DHT22;45733;52.668;6.860;2022-12-15T13:48:34;1.80;99.90
59857;DHT22;45733;52.668;6.860;2022-12-15T13:51:24;1.80;99.90
59857;DHT22;45733;52.668;6.860;2022-12-15T13:59:28;1.60;99.90
59857;DHT22;45733;52.668;6.860;2022-12-15T14:01:54;1.60;99.90
59857;DHT22;45733;52.668;6.860;2022-12-15T14:04:20;1.60;99.90
59857;DHT22;45733;52.668;6.860;2022-12-15T14:06:55;1.60;99.90
59857;DHT22;45733;52.668;6.860;2022-12-15T14:11:53;1.50;99.90
59857;DHT22;45733;52.668;6.860;2022-12-15T14:14:27;1.60;99.90
59857;DHT22;45733;52.668;6.860;2022-12-15T14:16:57;1.70;99.90
59857;DHT22;45733;52.668;6.860;2022-12-15T14:19:24;1.70;99.90
59857;DHT22;45733;52.668;6.860;2022-12-15T14:21:56;1.60;99.90
59857;DHT22;45733;52.668;6.860;2022-12-15T14:24:41;1.50;99.90
59857;DHT22;45733;52.668;6.860;2022-12-15T14:27:08;1.40;99.90
59857;DHT22;45733;52.668;6.860;2022-12-15T14:29:33;1.50;99.90
59857;DHT22;45733;52.668;6.860;2022-12-15T14:31:59;1.50;99.90
59857;DHT22;45733;52.668;6.860;2022-12-15T14:34:32;1.40;99.90
59857;DHT22;45733;52.668;6.860;2022-12-15T14:37:02;1.50;99.90
59857;DHT22;45733;52.668;6.860;2022-12-15T14:39:36;1.40;99.90
59857;DHT22;45733;52.668;6.860;2022-12-15T14:42:05;1.40;99.90
59857;DHT22;45733;52.668;6.860;2022-12-15T14:44:37;1.40;99.90
59857;DHT22;45733;52.668;6.860;2022-12-15T14:47:07;1.30;99.90
59857;DHT22;45733;52.668;6.860;2022-12-15T14:49:58;1.30;99.90
59857;DHT22;45733;52.668;6.860;2022-12-15T14:52:30;1.20;99.90
59857;DHT22;45733;52.668;6.860;2022-12-15T14:54:59;1.10;99.90
59857;DHT22;45733;52.668;6.860;2022-12-15T14:57:27;1.10;99.90
59857;DHT22;45733;52.668;6.860;2022-12-15T14:59:53;1.00;99.90
59857;DHT22;45733;52.668;6.860;2022-12-15T15:02:26;1.00;99.90
59857;DHT22;45733;52.668;6.860;2022-12-15T15:05:48;0.80;99.90
59857;DHT22;45733;52.668;6.860;2022-12-15T15:08:12;0.80;99.90
59857;DHT22;45733;52.668;6.860;2022-12-15T15:10:40;0.70;99.90
59857;DHT22;45733;52.668;6.860;2022-12-15T15:13:17;0.70;99.90
59857;DHT22;45733;52.668;6.860;2022-12-15T15:15:54;0.60;99.90
59857;DHT22;45733;52.668;6.860;2022-12-15T15:18:30;0.50;99.90
59857;DHT22;45733;52.668;6.860;2022-12-15T15:21:02;0.50;99.90
59857;DHT22;45733;52.668;6.860;2022-12-15T15:23:29;0.40;99.90
59857;DHT22;45733;52.668;6.860;2022-12-15T15:28:42;0.30;99.90
59857;DHT22;45733;52.668;6.860;2022-12-15T15:33:50;0.20;99.90
59857;DHT22;45733;52.668;6.860;2022-12-15T15:36:16;0.20;99.90
59857;DHT22;45733;52.668;6.860;2022-12-15T15:38:43;0.10;99.90
59857;DHT22;45733;52.668;6.860;2022-12-15T15:41:16;0.00;99.90
59857;DHT22;45733;52.668;6.860;2022-12-15T15:43:43;0.00;99.90
59857;DHT22;45733;52.668;6.860;2022-12-15T15:46:17;0.00;99.90
59857;DHT22;45733;52.668;6.860;2022-12-15T15:48:48;-0.10;99.90
59857;DHT22;45733;52.668;6.860;2022-12-15T15:51:15;-0.10;99.90
59857;DHT22;45733;52.668;6.860;2022-12-15T15:53:41;-0.20;99.90
59857;DHT22;45733;52.668;6.860;2022-12-15T15:56:10;-0.20;99.90
59857;DHT22;45733;52.668;6.860;2022-12-15T15:58:36;-0.30;99.90
59857;DHT22;45733;52.668;6.860;2022-12-15T16:01:03;-0.30;99.90
59857;DHT22;45733;52.668;6.860;2022-12-15T16:03:28;-0.30;99.90
59857;DHT22;45733;52.668;6.860;2022-12-15T16:05:55;-0.30;99.90
59857;DHT22;45733;52.668;6.860;2022-12-15T16:08:25;-0.30;99.90
59857;DHT22;45733;52.668;6.860;2022-12-15T16:10:53;-0.30;99.90
59857;DHT22;45733;52.668;6.860;2022-12-15T16:13:20;-0.40;99.90
59857;DHT22;45733;52.668;6.860;2022-12-15T16:15:46;-0.40;99.90
59857;DHT22;45733;52.668;6.860;2022-12-15T16:18:12;-0.40;99.90
59857;DHT22;45733;52.668;6.860;2022-12-15T16:20:39;-0.50;99.90
59857;DHT22;45733;52.668;6.860;2022-12-15T16:23:21;-0.50;99.90
59857;DHT22;45733;52.668;6.860;2022-12-15T16:25:53;-0.50;99.90
59857;DHT22;45733;52.668;6.860;2022-12-15T16:28:22;-0.50;99.90
59857;DHT22;45733;52.668;6.860;2022-12-15T16:30:49;-0.50;99.90
59857;DHT22;45733;52.668;6.860;2022-12-15T16:33:15;-0.50;99.90
59857;DHT22;45733;52.668;6.860;2022-12-15T16:35:43;-0.60;99.90
59857;DHT22;45733;52.668;6.860;2022-12-15T16:38:27;-0.60;99.90
59857;DHT22;45733;52.668;6.860;2022-12-15T16:40:55;-0.60;99.90
59857;DHT22;45733;52.668;6.860;2022-12-15T16:43:25;-0.70;99.90
59857;DHT22;45733;52.668;6.860;2022-12-15T16:45:52;-0.70;99.90
59857;DHT22;45733;52.668;6.860;2022-12-15T16:48:19;-0.80;99.90
59857;DHT22;45733;52.668;6.860;2022-12-15T16:50:51;-0.80;99.90
59857;DHT22;45733;52.668;6.860;2022-12-15T16:53:25;-0.80;99.90
59857;DHT22;45733;52.668;6.860;2022-12-15T16:55:55;-0.70;99.90
59857;DHT22;45733;52.668;6.860;2022-12-15T16:58:22;-0.80;99.90
59857;DHT22;45733;52.668;6.860;2022-12-15T17:00:50;-0.80;99.90
59857;DHT22;45733;52.668;6.860;2022-12-15T17:03:19;-0.80;99.90
59857;DHT22;45733;52.668;6.860;2022-12-15T17:05:53;-0.70;99.90
59857;DHT22;45733;52.668;6.860;2022-12-15T17:08:23;-0.70;99.90
59857;DHT22;45733;52.668;6.860;2022-12-15T17:10:50;-0.70;99.90
59857;DHT22;45733;52.668;6.860;2022-12-15T17:13:33;-0.70;99.90
59857;DHT22;45733;52.668;6.860;2022-12-15T17:16:00;-0.70;99.90
59857;DHT22;45733;52.668;6.860;2022-12-15T17:18:26;-0.70;99.90
59857;DHT22;45733;52.668;6.860;2022-12-15T17:21:00;-0.80;99.90
59857;DHT22;45733;52.668;6.860;2022-12-15T17:23:27;-0.80;99.90
59857;DHT22;45733;52.668;6.860;2022-12-15T17:25:53;-0.80;99.90
59857;DHT22;45733;52.668;6.860;2022-12-15T17:28:22;-0.80;99.90
59857;DHT22;45733;52.668;6.860;2022-12-15T17:30:49;-0.80;99.90
59857;DHT22;45733;52.668;6.860;2022-12-15T17:33:21;-0.90;99.90
59857;DHT22;45733;52.668;6.860;2022-12-15T17:35:53;-0.90;99.90
59857;DHT22;45733;52.668;6.860;2022-12-15T17:38:20;-0.90;99.90
59857;DHT22;45733;52.668;6.860;2022-12-15T17:40:48;-1.00;99.90
59857;DHT22;45733;52.668;6.860;2022-12-15T17:43:20;-1.00;99.90
59857;DHT22;45733;52.668;6.860;2022-12-15T17:45:46;-1.00;99.90
59857;DHT22;45733;52.668;6.860;2022-12-15T17:48:16;-1.10;99.90
59857;DHT22;45733;52.668;6.860;2022-12-15T17:50:43;-1.10;99.90
59857;DHT22;45733;52.668;6.860;2022-12-15T17:53:19;-1.00;99.90
59857;DHT22;45733;52.668;6.860;2022-12-15T17:55:47;-1.00;99.90
59857;DHT22;45733;52.668;6.860;2022-12-15T17:58:22;-1.10;99.90